createdAt,value
2023-06-05T00:00:30.348Z,40.80
2023-06-05T00:03:02.839Z,41.00
2023-06-05T00:09:07.529Z,42.20
2023-06-05T00:11:40.282Z,42.90
2023-06-05T00:16:47.811Z,43.70
2023-06-05T00:19:20.270Z,44.60
2023-06-05T00:21:54.217Z,45.20
2023-06-05T00:24:26.423Z,45.60
2023-06-05T00:26:59.670Z,45.90
2023-06-05T00:29:34.503Z,46.50
2023-06-05T00:32:07.097Z,50.20
2023-06-05T00:34:39.485Z,48.70
2023-06-05T00:37:14.571Z,48.20
2023-06-05T00:39:46.875Z,48.20
2023-06-05T00:42:19.126Z,48.40
2023-06-05T00:44:53.969Z,48.70
2023-06-05T00:47:26.418Z,48.90
2023-06-05T00:49:59.106Z,49.10
2023-06-05T00:52:31.715Z,49.30
2023-06-05T00:55:04.649Z,49.50
2023-06-05T00:57:37.810Z,49.70
2023-06-05T01:00:15.365Z,49.90
2023-06-05T01:02:47.756Z,50.10
2023-06-05T01:05:20.297Z,50.30
2023-06-05T01:07:53.108Z,50.60
2023-06-05T01:10:25.336Z,50.90
2023-06-05T01:13:04.345Z,51.00
2023-06-05T01:15:39.945Z,51.20
2023-06-05T01:18:13.145Z,51.50
2023-06-05T01:20:45.753Z,51.90
2023-06-05T01:23:26.583Z,52.30
2023-06-05T01:26:03.730Z,52.60
2023-06-05T01:28:37.022Z,52.90
2023-06-05T01:31:18.301Z,53.10
2023-06-05T01:33:57.938Z,53.20
2023-06-05T01:36:32.464Z,53.20
2023-06-05T01:39:08.315Z,53.30
2023-06-05T01:41:41.182Z,53.50
2023-06-05T01:44:17.030Z,53.70
2023-06-05T01:46:50.335Z,53.80
2023-06-05T01:49:22.996Z,53.80
2023-06-05T01:51:56.594Z,53.70
2023-06-05T01:54:33.903Z,53.90
2023-06-05T01:57:06.613Z,56.60
2023-06-05T01:59:38.833Z,58.90
2023-06-05T02:02:11.102Z,61.40
2023-06-05T02:04:43.840Z,65.90
2023-06-05T02:09:53.321Z,53.50
2023-06-05T02:12:27.676Z,54.30
2023-06-05T02:14:59.918Z,54.20
2023-06-05T02:17:32.120Z,54.10
2023-06-05T02:20:05.301Z,54.30
2023-06-05T02:22:37.413Z,54.20
2023-06-05T02:25:13.914Z,54.10
2023-06-05T02:27:46.113Z,54.10
2023-06-05T02:30:18.508Z,54.00
2023-06-05T02:32:58.423Z,54.00
2023-06-05T02:35:31.236Z,54.00
2023-06-05T02:38:06.251Z,54.20
2023-06-05T02:40:41.335Z,54.20
2023-06-05T02:43:15.759Z,54.10
2023-06-05T02:45:48.060Z,54.20
2023-06-05T02:48:20.309Z,54.10
2023-06-05T02:50:52.444Z,54.10
2023-06-05T02:53:24.628Z,54.20
2023-06-05T02:56:02.821Z,54.20
2023-06-05T02:58:35.034Z,54.40
2023-06-05T03:01:10.014Z,54.30
2023-06-05T03:03:43.116Z,54.30
2023-06-05T03:06:18.843Z,54.40
2023-06-05T03:08:51.168Z,54.40
2023-06-05T03:11:26.773Z,54.50
2023-06-05T03:13:58.910Z,54.40
2023-06-05T03:16:34.775Z,54.60
2023-06-05T03:19:07.313Z,54.80
2023-06-05T03:21:40.813Z,54.90
2023-06-05T03:24:14.264Z,55.10
2023-06-05T03:26:48.958Z,55.10
2023-06-05T03:29:21.585Z,55.10
2023-06-05T03:31:53.839Z,55.10
2023-06-05T03:34:27.195Z,55.20
2023-06-05T03:37:00.127Z,55.10
2023-06-05T03:39:32.335Z,55.20
2023-06-05T03:42:12.368Z,55.20
2023-06-05T03:44:44.504Z,55.20
2023-06-05T03:47:16.719Z,55.10
2023-06-05T03:49:48.981Z,55.10
2023-06-05T03:52:25.535Z,55.10
2023-06-05T03:54:57.940Z,55.10
2023-06-05T03:57:33.521Z,55.20
2023-06-05T04:00:10.969Z,55.30
2023-06-05T04:02:43.792Z,55.40
2023-06-05T04:05:16.146Z,55.50
2023-06-05T04:07:48.253Z,55.60
2023-06-05T04:10:20.550Z,55.70
2023-06-05T04:12:55.317Z,55.80
2023-06-05T04:15:28.678Z,55.80
2023-06-05T04:18:01.037Z,55.80
2023-06-05T04:20:33.217Z,55.80
2023-06-05T04:23:05.702Z,55.80
2023-06-05T04:25:37.789Z,55.90
2023-06-05T04:28:13.099Z,55.90
2023-06-05T04:30:47.335Z,55.90
2023-06-05T04:33:19.851Z,55.90
2023-06-05T04:35:52.035Z,56.00
2023-06-05T04:38:24.253Z,56.10
2023-06-05T04:40:56.554Z,56.30
2023-06-05T04:43:31.379Z,56.30
2023-06-05T04:46:04.317Z,56.30
2023-06-05T04:48:37.964Z,56.30
2023-06-05T04:51:11.062Z,56.40
2023-06-05T04:53:44.312Z,56.40
2023-06-05T04:56:16.590Z,56.40
2023-06-05T04:58:52.652Z,56.60
2023-06-05T05:01:25.689Z,56.60
2023-06-05T05:03:58.185Z,56.60
2023-06-05T05:06:30.588Z,56.70
2023-06-05T05:09:05.121Z,56.70
2023-06-05T05:11:37.954Z,56.80
2023-06-05T05:14:12.707Z,56.70
2023-06-05T05:16:44.945Z,56.80
2023-06-05T05:19:17.249Z,56.80
2023-06-05T05:21:49.780Z,56.80
2023-06-05T05:24:22.254Z,56.80
2023-06-05T05:26:54.483Z,56.80
2023-06-05T05:29:29.602Z,56.60
2023-06-05T05:32:01.808Z,56.70
2023-06-05T05:34:35.142Z,56.50
2023-06-05T05:37:10.299Z,56.50
2023-06-05T05:39:42.464Z,56.40
2023-06-05T05:42:14.654Z,56.40
2023-06-05T05:44:49.720Z,56.20
2023-06-05T05:47:22.018Z,56.20
2023-06-05T05:49:54.245Z,56.20
2023-06-05T05:52:26.344Z,56.00
2023-06-05T05:55:00.132Z,55.80
2023-06-05T05:57:32.601Z,55.80
2023-06-05T06:00:13.947Z,55.90
2023-06-05T06:02:46.907Z,55.80
2023-06-05T06:05:19.514Z,55.90
2023-06-05T06:07:52.247Z,55.80
2023-06-05T06:10:24.393Z,55.80
2023-06-05T06:12:57.773Z,55.90
2023-06-05T06:15:33.214Z,56.00
2023-06-05T06:18:05.576Z,55.90
2023-06-05T06:20:37.794Z,55.60
2023-06-05T06:23:10.546Z,55.50
2023-06-05T06:25:43.160Z,55.40
2023-06-05T06:28:15.507Z,55.40
2023-06-05T06:30:50.317Z,55.50
2023-06-05T06:33:24.238Z,55.40
2023-06-05T06:35:59.678Z,55.30
2023-06-05T06:38:33.347Z,55.00
2023-06-05T06:41:05.548Z,54.80
2023-06-05T06:43:37.752Z,54.70
2023-06-05T06:46:12.546Z,54.50
2023-06-05T06:48:44.855Z,54.50
2023-06-05T06:51:17.236Z,54.50
2023-06-05T06:53:49.775Z,54.60
2023-06-05T06:56:22.617Z,54.50
2023-06-05T06:58:54.758Z,54.50
2023-06-05T07:01:30.118Z,54.60
2023-06-05T07:04:02.739Z,54.70
2023-06-05T07:06:34.987Z,54.60
2023-06-05T07:09:07.156Z,54.50
2023-06-05T07:11:39.712Z,54.40
2023-06-05T07:14:12.795Z,54.40
2023-06-05T07:16:47.599Z,54.40
2023-06-05T07:19:19.709Z,54.60
2023-06-05T07:21:51.901Z,54.60
2023-06-05T07:24:25.692Z,54.50
2023-06-05T07:26:59.055Z,54.30
2023-06-05T07:29:31.843Z,54.30
2023-06-05T07:32:07.882Z,54.30
2023-06-05T07:34:40.406Z,54.20
2023-06-05T07:37:12.536Z,54.20
2023-06-05T07:39:44.662Z,54.30
2023-06-05T07:42:17.004Z,54.20
2023-06-05T07:44:49.775Z,53.80
2023-06-05T07:47:24.723Z,53.80
2023-06-05T07:50:00.699Z,53.80
2023-06-05T07:52:33.324Z,53.90
2023-06-05T07:55:07.490Z,54.10
2023-06-05T07:57:39.685Z,54.00
2023-06-05T08:00:13.220Z,54.00
2023-06-05T08:02:50.036Z,54.10
2023-06-05T08:05:22.341Z,53.90
2023-06-05T08:07:54.481Z,53.80
2023-06-05T08:10:26.963Z,53.90
2023-06-05T08:12:59.252Z,53.60
2023-06-05T08:15:31.410Z,53.50
2023-06-05T08:18:06.376Z,53.50
2023-06-05T08:20:38.618Z,53.50
2023-06-05T08:23:10.816Z,53.60
2023-06-05T08:25:43.876Z,53.60
2023-06-05T08:28:16.834Z,53.50
2023-06-05T08:30:49.770Z,53.70
2023-06-05T08:33:24.501Z,53.70
2023-06-05T08:35:56.669Z,53.70
2023-06-05T08:38:29.457Z,53.70
2023-06-05T08:41:03.285Z,53.60
2023-06-05T08:43:37.491Z,53.60
2023-06-05T08:46:12.310Z,53.70
2023-06-05T08:48:48.443Z,53.80
2023-06-05T08:51:21.020Z,53.70
2023-06-05T08:53:57.984Z,53.70
2023-06-05T08:56:30.407Z,53.70
2023-06-05T08:59:02.888Z,53.70
2023-06-05T09:01:35.392Z,53.60
2023-06-05T09:04:10.554Z,53.40
2023-06-05T09:06:46.815Z,53.50
2023-06-05T09:09:19.477Z,53.60
2023-06-05T09:12:03.085Z,53.70
2023-06-05T09:14:35.709Z,53.50
2023-06-05T09:17:14.188Z,53.40
2023-06-05T09:19:49.036Z,53.40
2023-06-05T09:22:35.040Z,53.50
2023-06-05T09:25:08.026Z,53.60
2023-06-05T09:27:40.514Z,53.50
2023-06-05T09:30:14.199Z,53.60
2023-06-05T09:32:46.844Z,53.60
2023-06-05T09:35:21.690Z,53.50
2023-06-05T09:37:53.828Z,53.40
2023-06-05T09:40:38.706Z,53.30
2023-06-05T09:43:16.445Z,53.10
2023-06-05T09:45:48.633Z,53.20
2023-06-05T09:48:21.437Z,53.30
2023-06-05T09:51:08.996Z,53.20
2023-06-05T09:53:44.541Z,53.10
2023-06-05T09:56:17.894Z,52.70
2023-06-05T09:58:51.668Z,52.80
2023-06-05T10:01:25.875Z,52.70
2023-06-05T10:04:00.077Z,52.50
2023-06-05T10:06:35.740Z,52.20
2023-06-05T10:09:10.853Z,51.90
2023-06-05T10:11:43.840Z,51.50
2023-06-05T10:14:16.936Z,51.70
2023-06-05T10:16:54.227Z,50.90
2023-06-05T10:19:26.528Z,50.20
2023-06-05T10:22:03.242Z,49.20
2023-06-05T10:24:38.900Z,48.00
2023-06-05T10:27:44.424Z,47.80
2023-06-05T10:30:52.684Z,48.10
2023-06-05T10:33:48.105Z,48.00
2023-06-05T10:36:41.394Z,47.50
2023-06-05T10:39:16.721Z,46.50
2023-06-05T10:41:51.411Z,46.20
2023-06-05T10:44:44.751Z,46.60
2023-06-05T10:47:57.177Z,46.30
2023-06-05T10:50:32.789Z,45.80
2023-06-05T10:53:05.332Z,45.90
2023-06-05T10:55:46.177Z,44.90
2023-06-05T10:58:18.384Z,44.10
2023-06-05T11:01:19.496Z,44.00
2023-06-05T11:03:59.055Z,43.90
2023-06-05T11:06:32.318Z,42.80
2023-06-05T11:09:13.919Z,42.60
2023-06-05T11:12:02.879Z,42.80
2023-06-05T11:14:45.218Z,42.50
2023-06-05T11:17:30.963Z,41.90
2023-06-05T11:20:08.017Z,42.00
2023-06-05T11:22:54.898Z,42.20
2023-06-05T11:25:28.681Z,41.80
2023-06-05T11:28:06.623Z,42.20
2023-06-05T11:33:18.124Z,42.00
2023-06-05T11:35:53.936Z,41.60
2023-06-05T11:38:26.375Z,41.80
2023-06-05T11:40:58.583Z,42.00
2023-06-05T11:43:33.433Z,41.30
2023-06-05T11:46:05.709Z,40.90
2023-06-05T11:48:44.266Z,40.40
2023-06-05T11:51:16.513Z,40.10
2023-06-05T11:53:48.734Z,39.90
2023-06-05T11:56:23.004Z,39.50
2023-06-05T11:58:57.827Z,39.50
2023-06-05T12:01:32.883Z,39.20
2023-06-05T12:04:06.618Z,39.50
2023-06-05T12:06:43.176Z,39.40
2023-06-05T12:09:16.971Z,38.30
2023-06-05T12:11:49.602Z,37.30
2023-06-05T12:14:34.671Z,36.00
2023-06-05T12:17:13.803Z,35.70
2023-06-05T12:19:53.980Z,33.90
2023-06-05T12:22:26.204Z,33.60
2023-06-05T12:27:50.076Z,31.90
2023-06-05T12:30:24.977Z,32.40
2023-06-05T12:33:06.225Z,32.10
2023-06-05T12:35:39.488Z,32.00
2023-06-05T12:38:12.463Z,31.40
2023-06-05T12:41:00.831Z,31.00
2023-06-05T12:43:37.633Z,31.20
2023-06-05T12:46:13.182Z,30.90
2023-06-05T12:48:45.493Z,31.10
2023-06-05T12:51:17.835Z,30.80
2023-06-05T12:53:50.087Z,30.20
2023-06-05T12:56:25.917Z,30.50
2023-06-05T12:58:59.189Z,30.50
2023-06-05T13:01:37.801Z,30.00
2023-06-05T13:04:10.205Z,30.20
2023-06-05T13:06:42.851Z,30.40
2023-06-05T13:09:15.245Z,30.60
2023-06-05T13:11:47.428Z,30.10
2023-06-05T13:14:19.669Z,30.00
2023-06-05T13:16:55.093Z,29.80
2023-06-05T13:19:27.613Z,29.90
2023-06-05T13:21:59.948Z,29.90
2023-06-05T13:24:32.186Z,29.80
2023-06-05T13:27:04.837Z,29.90
2023-06-05T13:29:37.019Z,29.70
2023-06-05T13:32:11.891Z,29.60
2023-06-05T13:34:44.167Z,29.30
2023-06-05T13:37:16.307Z,28.90
2023-06-05T13:39:48.507Z,29.10
2023-06-05T13:42:20.751Z,29.30
2023-06-05T13:44:53.281Z,28.90
2023-06-05T13:47:28.147Z,29.00
2023-06-05T13:50:00.884Z,29.30
2023-06-05T13:52:33.326Z,29.20
2023-06-05T13:55:07.437Z,29.30
2023-06-05T13:57:39.907Z,29.20
2023-06-05T14:00:13.866Z,29.00
2023-06-05T14:02:51.415Z,29.00
2023-06-05T14:05:29.027Z,29.00
2023-06-05T14:08:03.430Z,29.00
2023-06-05T14:10:37.446Z,29.00
2023-06-05T14:13:09.847Z,29.30
2023-06-05T14:15:42.772Z,29.00
2023-06-05T14:18:17.569Z,29.10
2023-06-05T14:20:49.732Z,28.70
2023-06-05T14:23:24.547Z,28.90
2023-06-05T14:25:56.812Z,28.90
2023-06-05T14:28:29.713Z,28.60
2023-06-05T14:31:04.735Z,28.70
2023-06-05T14:33:39.516Z,28.90
2023-06-05T14:36:11.976Z,29.00
2023-06-05T14:38:44.360Z,28.90
2023-06-05T14:41:20.754Z,29.10
2023-06-05T14:43:57.164Z,29.20
2023-06-05T14:46:32.346Z,29.00
2023-06-05T14:49:07.545Z,29.20
2023-06-05T14:51:41.644Z,29.10
2023-06-05T14:54:14.741Z,29.40
2023-06-05T14:56:47.000Z,28.90
2023-06-05T15:01:54.629Z,28.80
2023-06-05T15:04:30.421Z,29.10
2023-06-05T15:07:02.923Z,29.00
2023-06-05T15:09:35.379Z,28.90
2023-06-05T15:12:11.353Z,29.00
2023-06-05T15:14:45.767Z,29.10
2023-06-05T15:17:19.057Z,28.90
2023-06-05T15:19:53.880Z,28.90
2023-06-05T15:22:26.307Z,28.90
2023-06-05T15:24:58.587Z,29.10
2023-06-05T15:27:31.220Z,29.30
2023-06-05T15:30:03.676Z,29.40
2023-06-05T15:32:36.000Z,29.50
2023-06-05T15:35:11.141Z,29.60
2023-06-05T15:37:43.288Z,30.00
2023-06-05T15:40:15.728Z,29.30
2023-06-05T15:43:03.643Z,29.40
2023-06-05T15:45:36.268Z,29.40
2023-06-05T15:48:09.629Z,29.60
2023-06-05T15:50:44.504Z,29.40
2023-06-05T15:53:16.679Z,29.20
2023-06-05T15:55:49.067Z,29.40
2023-06-05T15:58:23.611Z,29.40
2023-06-05T16:00:55.872Z,29.50
2023-06-05T16:03:28.161Z,29.70
2023-06-05T16:06:02.998Z,29.70
2023-06-05T16:08:35.174Z,29.60
2023-06-05T16:11:07.816Z,29.60
2023-06-05T16:13:41.051Z,30.10
2023-06-05T16:16:13.246Z,29.90
2023-06-05T16:18:45.491Z,29.70
2023-06-05T16:21:20.309Z,29.90
2023-06-05T16:23:52.530Z,29.60
2023-06-05T16:26:24.842Z,29.50
2023-06-05T16:28:57.122Z,29.40
2023-06-05T16:31:29.381Z,29.60
2023-06-05T16:34:09.518Z,29.60
2023-06-05T16:36:45.791Z,29.70
2023-06-05T16:39:18.681Z,29.70
2023-06-05T16:41:51.265Z,29.60
2023-06-05T16:44:23.516Z,29.60
2023-06-05T16:46:56.132Z,29.80
2023-06-05T16:49:28.718Z,30.00
2023-06-05T16:52:03.899Z,29.80
2023-06-05T16:54:36.790Z,30.00
2023-06-05T16:57:09.391Z,30.00
2023-06-05T16:59:41.712Z,30.00
2023-06-05T17:02:14.121Z,30.00
2023-06-05T17:04:46.900Z,30.00
2023-06-05T17:07:22.402Z,30.00
2023-06-05T17:09:54.896Z,30.00
2023-06-05T17:12:27.178Z,30.10
2023-06-05T17:14:59.380Z,30.40
2023-06-05T17:17:31.575Z,30.70
2023-06-05T17:20:04.961Z,30.80
2023-06-05T17:22:39.816Z,31.00
2023-06-05T17:25:12.664Z,31.40
2023-06-05T17:27:45.613Z,31.50
2023-06-05T17:30:17.934Z,31.50
2023-06-05T17:32:50.267Z,31.20
2023-06-05T17:35:22.768Z,31.10
2023-06-05T17:37:57.610Z,31.20
2023-06-05T17:40:29.868Z,31.10
2023-06-05T17:43:02.576Z,31.10
2023-06-05T17:45:35.701Z,31.30
2023-06-05T17:48:09.499Z,31.50
2023-06-05T17:50:41.888Z,31.70
2023-06-05T17:53:17.785Z,31.80
2023-06-05T17:55:50.058Z,31.90
2023-06-05T17:58:23.960Z,32.00
2023-06-05T18:00:56.225Z,32.10
2023-06-05T18:03:28.913Z,32.30
2023-06-05T18:06:01.090Z,32.40
2023-06-05T18:08:38.416Z,32.50
2023-06-05T18:11:11.426Z,32.60
2023-06-05T18:13:44.410Z,32.70
2023-06-05T18:16:16.696Z,32.60
2023-06-05T18:18:48.949Z,32.80
2023-06-05T18:21:21.583Z,32.90
2023-06-05T18:23:57.304Z,33.00
2023-06-05T18:26:29.607Z,33.10
2023-06-05T18:29:01.819Z,33.20
2023-06-05T18:31:34.056Z,33.50
2023-06-05T18:34:07.871Z,33.70
2023-06-05T18:36:40.052Z,34.00
2023-06-05T18:39:14.985Z,34.30
2023-06-05T18:41:47.259Z,34.40
2023-06-05T18:44:19.447Z,34.60
2023-06-05T18:46:53.743Z,34.70
2023-06-05T18:49:26.195Z,34.90
2023-06-05T18:51:58.393Z,35.00
2023-06-05T18:54:33.129Z,35.30
2023-06-05T18:57:06.807Z,35.50
2023-06-05T18:59:39.011Z,35.70
2023-06-05T19:02:11.254Z,35.80
2023-06-05T19:04:43.449Z,36.00
2023-06-05T19:07:15.697Z,36.30
2023-06-05T19:09:50.513Z,36.50
2023-06-05T19:12:22.732Z,36.70
2023-06-05T19:14:54.911Z,36.70
2023-06-05T19:17:27.281Z,36.90
2023-06-05T19:19:59.510Z,37.30
2023-06-05T19:22:31.726Z,37.70
2023-06-05T19:25:08.461Z,37.80
2023-06-05T19:27:40.661Z,37.90
2023-06-05T19:30:13.569Z,38.20
2023-06-05T19:32:45.978Z,38.40
2023-06-05T19:35:19.561Z,38.60
2023-06-05T19:37:51.858Z,38.60
2023-06-05T19:40:26.838Z,38.80
2023-06-05T19:42:59.609Z,39.00
2023-06-05T19:45:34.639Z,39.20
2023-06-05T19:48:09.868Z,39.50
2023-06-05T19:50:42.423Z,39.70
2023-06-05T19:53:15.465Z,41.20
2023-06-05T19:55:51.720Z,42.20
2023-06-05T19:58:26.888Z,42.90
2023-06-05T20:00:59.322Z,44.40
2023-06-05T20:03:31.563Z,45.50
2023-06-05T20:06:04.175Z,46.10
2023-06-05T20:08:36.422Z,46.80
2023-06-05T20:11:11.632Z,47.40
2023-06-05T20:13:45.614Z,48.40
2023-06-05T20:16:18.097Z,48.70
2023-06-05T20:18:50.530Z,49.30
2023-06-05T20:21:23.702Z,49.70
2023-06-05T20:23:56.645Z,49.90
2023-06-05T20:26:31.389Z,50.30
2023-06-05T20:29:06.548Z,50.90
2023-06-05T20:31:38.872Z,51.20
2023-06-05T20:34:13.028Z,51.80
2023-06-05T20:36:46.980Z,52.00
2023-06-05T20:39:19.436Z,52.30
2023-06-05T20:41:55.290Z,52.60
2023-06-05T20:44:30.977Z,53.00
2023-06-05T20:47:03.669Z,53.40
2023-06-05T20:49:39.161Z,53.60
2023-06-05T20:52:12.604Z,53.80
2023-06-05T20:54:46.731Z,54.10
2023-06-05T20:57:21.863Z,54.30
2023-06-05T20:59:54.432Z,54.70
2023-06-05T21:02:26.713Z,55.00
2023-06-05T21:04:58.967Z,55.20
2023-06-05T21:07:31.202Z,55.50
2023-06-05T21:10:03.643Z,55.70
2023-06-05T21:12:38.485Z,55.90
2023-06-05T21:15:11.877Z,56.10
2023-06-05T21:17:45.706Z,56.60
2023-06-05T21:20:17.928Z,56.70
2023-06-05T21:22:50.171Z,56.90
2023-06-05T21:25:22.337Z,57.30
2023-06-05T21:27:57.293Z,57.60
2023-06-05T21:30:29.914Z,57.80
2023-06-05T21:33:02.162Z,58.00
2023-06-05T21:35:34.395Z,58.20
2023-06-05T21:38:06.625Z,58.50
2023-06-05T21:40:38.865Z,58.70
2023-06-05T21:45:46.954Z,58.90
2023-06-05T21:48:21.627Z,59.50
2023-06-05T21:50:54.090Z,59.60
2023-06-05T21:53:26.302Z,59.60
2023-06-05T21:55:58.448Z,59.80
2023-06-05T21:58:33.322Z,59.80
2023-06-05T22:01:05.781Z,59.80
2023-06-05T22:03:39.950Z,60.00
2023-06-05T22:06:13.731Z,60.40
2023-06-05T22:08:46.986Z,60.60
2023-06-05T22:11:21.171Z,60.70
2023-06-05T22:13:57.885Z,61.10
2023-06-05T22:16:39.150Z,61.40
2023-06-05T22:19:13.513Z,61.50
2023-06-05T22:21:50.343Z,61.70
2023-06-05T22:24:24.655Z,62.10
2023-06-05T22:26:58.068Z,62.50
2023-06-05T22:29:32.843Z,62.70
2023-06-05T22:32:05.997Z,63.10
2023-06-05T22:34:38.735Z,63.40
2023-06-05T22:37:12.731Z,63.60
2023-06-05T22:39:44.891Z,63.80
2023-06-05T22:42:17.038Z,64.10
2023-06-05T22:44:52.221Z,64.50
2023-06-05T22:47:26.452Z,65.00
2023-06-05T22:50:00.865Z,65.60
2023-06-05T22:52:34.569Z,65.90
2023-06-05T22:55:07.884Z,66.30
2023-06-05T22:57:40.157Z,66.70
2023-06-05T23:00:16.600Z,66.90
2023-06-05T23:02:48.812Z,67.00
2023-06-05T23:05:21.573Z,67.00
2023-06-05T23:07:54.356Z,67.30
2023-06-05T23:10:27.339Z,67.40
2023-06-05T23:12:59.489Z,67.60
2023-06-05T23:15:44.692Z,67.60
2023-06-05T23:18:16.889Z,67.80
2023-06-05T23:20:49.449Z,68.00
2023-06-05T23:23:21.789Z,68.20
2023-06-05T23:25:54.620Z,68.40
2023-06-05T23:28:26.777Z,68.50
2023-06-05T23:31:01.658Z,68.50
2023-06-05T23:33:33.780Z,69.10
2023-06-05T23:36:06.854Z,69.00
2023-06-05T23:38:39.087Z,69.30
2023-06-05T23:41:11.815Z,69.40
2023-06-05T23:43:45.089Z,69.40
2023-06-05T23:46:21.800Z,69.40
2023-06-05T23:48:54.184Z,69.50
2023-06-05T23:51:29.234Z,69.60
2023-06-05T23:54:02.424Z,69.70
2023-06-05T23:56:34.692Z,69.70
2023-06-05T23:59:06.887Z,69.80
